WXM80 ListenWXM80 Stop

You find our weather info also at:

UK Metoffice

WeatherCloud

Weather Underground

Northeastern Weather Network

AWEKAS

Citizen Weather Observer Program (CWOP)

HAMweather, WeatherForYou, PWS Weather


Weather Underground History page Text

Daily Summary for May 15, 2017 Units:  Both    English   Metric
« Previous Day
Next Day »
Daily Weekly Monthly Yearly Custom
  High: Low: Average:
Temperature: 67.6 °F /  19.8 °C 52.5 °F /  11.4 °C 59.9 °F /  15.5 °C
Dew Point: 51.3 °F /  10.7 °C 45.3 °F /  7.4 °C 48.1 °F /  8.9 °C
Humidity: 80 % 52 % 66 %
Wind Speed: 10.9 mph /  17.5 km/h - 5.1 mph /  8.2 km/h
Wind Gust: 21.0 mph /  33.8 km/h - -
Wind:- - WNW
Pressure: 29.86 in /  1011.1 hPa 29.55 in /  1000.6 hPa -
Precipitation: 0.00 in /  0 mm    
Historical Graphs
 
 
Tabular Data for May 15, 2017
Time Temperature Dew Point Pressure Wind Wind Speed Wind Gust Humidity Rainfall Rate (Hourly)
00:00 54.9 °F /  12.7 °C 45.7 °F /  7.6 °C 29.56 in /  1000.9 hPa West 4.1 mph /  6.6 km/h 15.0 mph /  24.1 km/h 71 % 0.00 in /  0 mm
00:01 54.9 °F /  12.7 °C 45.3 °F /  7.4 °C 29.56 in /  1000.9 hPa WNW 7.3 mph /  11.7 km/h 15.0 mph /  24.1 km/h 70 % 0.00 in /  0 mm
00:06 54.8 °F /  12.7 °C 45.6 °F /  7.6 °C 29.56 in /  1000.9 hPa WNW 5.6 mph /  9 km/h 18.0 mph /  29 km/h 71 % 0.00 in /  0 mm
00:11 54.8 °F /  12.7 °C 45.6 °F /  7.6 °C 29.56 in /  1000.9 hPa NW 7.9 mph /  12.7 km/h 11.5 mph /  18.5 km/h 71 % 0.00 in /  0 mm
00:16 54.8 °F /  12.7 °C 45.6 °F /  7.6 °C 29.55 in /  1000.6 hPa WNW 8.1 mph /  13 km/h 10.4 mph /  16.7 km/h 71 % 0.00 in /  0 mm
00:21 54.8 °F /  12.7 °C 45.6 °F /  7.6 °C 29.56 in /  1000.9 hPa NW 3.3 mph /  5.3 km/h 8.1 mph /  13 km/h 71 % 0.00 in /  0 mm
00:26 54.7 °F /  12.6 °C 45.8 °F /  7.7 °C 29.56 in /  1000.9 hPa NW 4.7 mph /  7.6 km/h 8.1 mph /  13 km/h 72 % 0.00 in /  0 mm
00:31 54.6 °F /  12.6 °C 45.8 °F /  7.7 °C 29.56 in /  1000.9 hPa West 5.8 mph /  9.3 km/h 12.7 mph /  20.4 km/h 72 % 0.00 in /  0 mm
00:36 54.5 °F /  12.5 °C 45.7 °F /  7.6 °C 29.56 in /  1000.9 hPa NNW 3.0 mph /  4.8 km/h 6.0 mph /  9.7 km/h 72 % 0.00 in /  0 mm
00:41 54.4 °F /  12.4 °C 45.6 °F /  7.6 °C 29.56 in /  1000.9 hPa WNW 3.3 mph /  5.3 km/h 8.1 mph /  13 km/h 72 % 0.00 in /  0 mm
00:46 54.3 °F /  12.4 °C 45.8 °F /  7.7 °C 29.56 in /  1000.9 hPa NW 3.8 mph /  6.1 km/h 9.0 mph /  14.5 km/h 73 % 0.00 in /  0 mm
00:51 54.2 °F /  12.3 °C 45.7 °F /  7.6 °C 29.55 in /  1000.6 hPa West 4.0 mph /  6.4 km/h 11.0 mph /  17.7 km/h 73 % 0.00 in /  0 mm
00:56 54.1 °F /  12.3 °C 45.6 °F /  7.6 °C 29.55 in /  1000.6 hPa WSW 6.3 mph /  10.1 km/h 9.2 mph /  14.8 km/h 73 % 0.00 in /  0 mm
01:01 54.0 °F /  12.2 °C 45.5 °F /  7.5 °C 29.55 in /  1000.6 hPa WSW 5.6 mph /  9 km/h 6.9 mph /  11.1 km/h 73 % 0.00 in /  0 mm
01:07 53.9 °F /  12.2 °C 45.4 °F /  7.4 °C 29.55 in /  1000.6 hPa West 5.3 mph /  8.5 km/h 11.5 mph /  18.5 km/h 73 % 0.00 in /  0 mm
01:12 53.8 °F /  12.1 °C 45.7 °F /  7.6 °C 29.55 in /  1000.6 hPa NW 3.0 mph /  4.8 km/h 11.5 mph /  18.5 km/h 74 % 0.00 in /  0 mm
01:17 53.7 °F /  12.1 °C 45.6 °F /  7.6 °C 29.56 in /  1000.9 hPa West 5.2 mph /  8.4 km/h 11.5 mph /  18.5 km/h 74 % 0.00 in /  0 mm
01:22 53.6 °F /  12 °C 45.5 °F /  7.5 °C 29.56 in /  1000.9 hPa SSW 2.2 mph /  3.5 km/h 8.1 mph /  13 km/h 74 % 0.00 in /  0 mm
01:27 53.5 °F /  11.9 °C 45.4 °F /  7.4 °C 29.56 in /  1000.9 hPa West 5.1 mph /  8.2 km/h 7.0 mph /  11.3 km/h 74 % 0.00 in /  0 mm
01:32 53.4 °F /  11.9 °C 45.7 °F /  7.6 °C 29.56 in /  1000.9 hPa NNW 5.9 mph /  9.5 km/h 11.5 mph /  18.5 km/h 75 % 0.00 in /  0 mm
01:37 53.4 °F /  11.9 °C 45.3 °F /  7.4 °C 29.56 in /  1000.9 hPa NW 6.5 mph /  10.5 km/h 8.1 mph /  13 km/h 74 % 0.00 in /  0 mm
01:42 53.3 °F /  11.8 °C 45.6 °F /  7.6 °C 29.55 in /  1000.6 hPa West 4.8 mph /  7.7 km/h 9.2 mph /  14.8 km/h 75 % 0.00 in /  0 mm
01:47 53.3 °F /  11.8 °C 45.6 °F /  7.6 °C 29.55 in /  1000.6 hPa West 4.2 mph /  6.8 km/h 6.9 mph /  11.1 km/h 75 % 0.00 in /  0 mm
01:52 53.2 °F /  11.8 °C 45.5 °F /  7.5 °C 29.55 in /  1000.6 hPa WSW 6.8 mph /  10.9 km/h 16.1 mph /  25.9 km/h 75 % 0.00 in /  0 mm
01:57 53.2 °F /  11.8 °C 45.5 °F /  7.5 °C 29.55 in /  1000.6 hPa West 4.5 mph /  7.2 km/h 13.8 mph /  22.2 km/h 75 % 0.00 in /  0 mm
02:02 53.1 °F /  11.7 °C 45.4 °F /  7.4 °C 29.55 in /  1000.6 hPa West 5.1 mph /  8.2 km/h 11.5 mph /  18.5 km/h 75 % 0.00 in /  0 mm
02:07 53.0 °F /  11.7 °C 45.6 °F /  7.6 °C 29.55 in /  1000.6 hPa WSW 5.3 mph /  8.5 km/h 12.7 mph /  20.4 km/h 76 % 0.00 in /  0 mm
02:12 52.9 °F /  11.6 °C 45.5 °F /  7.5 °C 29.55 in /  1000.6 hPa SW 5.5 mph /  8.9 km/h 11.5 mph /  18.5 km/h 76 % 0.00 in /  0 mm
02:17 52.8 °F /  11.6 °C 45.4 °F /  7.4 °C 29.56 in /  1000.9 hPa WNW 4.8 mph /  7.7 km/h 10.4 mph /  16.7 km/h 76 % 0.00 in /  0 mm
02:22 52.7 °F /  11.5 °C 45.7 °F /  7.6 °C 29.55 in /  1000.6 hPa SW 6.8 mph /  10.9 km/h 11.5 mph /  18.5 km/h 77 % 0.00 in /  0 mm
02:27 52.6 °F /  11.4 °C 45.6 °F /  7.6 °C 29.56 in /  1000.9 hPa West 4.7 mph /  7.6 km/h 11.5 mph /  18.5 km/h 77 % 0.00 in /  0 mm
02:32 52.6 °F /  11.4 °C 45.6 °F /  7.6 °C 29.55 in /  1000.6 hPa WSW 5.3 mph /  8.5 km/h 10.4 mph /  16.7 km/h 77 % 0.00 in /  0 mm
02:37 52.5 °F /  11.4 °C 45.8 °F /  7.7 °C 29.56 in /  1000.9 hPa SW 2.8 mph /  4.5 km/h 7.0 mph /  11.3 km/h 78 % 0.00 in /  0 mm
02:42 52.5 °F /  11.4 °C 45.5 °F /  7.5 °C 29.56 in /  1000.9 hPa WNW 8.8 mph /  14.2 km/h 12.0 mph /  19.3 km/h 77 % 0.00 in /  0 mm
02:47 52.5 °F /  11.4 °C 45.8 °F /  7.7 °C 29.56 in /  1000.9 hPa WSW 6.6 mph /  10.6 km/h 13.8 mph /  22.2 km/h 78 % 0.00 in /  0 mm
02:52 52.5 °F /  11.4 °C 45.5 °F /  7.5 °C 29.55 in /  1000.6 hPa WSW 5.0 mph /  8 km/h 11.5 mph /  18.5 km/h 77 % 0.00 in /  0 mm
02:57 52.5 °F /  11.4 °C 45.8 °F /  7.7 °C 29.56 in /  1000.9 hPa SW 6.5 mph /  10.5 km/h 7.0 mph /  11.3 km/h 78 % 0.00 in /  0 mm
03:02 52.5 °F /  11.4 °C 45.8 °F /  7.7 °C 29.56 in /  1000.9 hPa WSW 4.1 mph /  6.6 km/h 13.8 mph /  22.2 km/h 78 % 0.00 in /  0 mm
03:07 52.5 °F /  11.4 °C 45.8 °F /  7.7 °C 29.56 in /  1000.9 hPa WNW 2.5 mph /  4 km/h 6.9 mph /  11.1 km/h 78 % 0.00 in /  0 mm
03:12 52.5 °F /  11.4 °C 45.8 °F /  7.7 °C 29.56 in /  1000.9 hPa WSW 6.1 mph /  9.8 km/h 13.8 mph /  22.2 km/h 78 % 0.00 in /  0 mm
03:18 52.5 °F /  11.4 °C 45.8 °F /  7.7 °C 29.55 in /  1000.6 hPa West 4.4 mph /  7.1 km/h 16.1 mph /  25.9 km/h 78 % 0.00 in /  0 mm
03:23 52.5 °F /  11.4 °C 45.8 °F /  7.7 °C 29.56 in /  1000.9 hPa West 5.2 mph /  8.4 km/h 9.2 mph /  14.8 km/h 78 % 0.00 in /  0 mm
03:28 52.6 °F /  11.4 °C 45.9 °F /  7.7 °C 29.55 in /  1000.6 hPa SW 4.0 mph /  6.4 km/h 11.5 mph /  18.5 km/h 78 % 0.00 in /  0 mm
03:33 52.6 °F /  11.4 °C 45.6 °F /  7.6 °C 29.56 in /  1000.9 hPa SSW 6.6 mph /  10.6 km/h 17.3 mph /  27.8 km/h 77 % 0.00 in /  0 mm
03:38 52.6 °F /  11.4 °C 45.9 °F /  7.7 °C 29.55 in /  1000.6 hPa West 6.9 mph /  11.1 km/h 10.4 mph /  16.7 km/h 78 % 0.00 in /  0 mm
03:43 52.7 °F /  11.5 °C 46.0 °F /  7.8 °C 29.55 in /  1000.6 hPa WSW 7.0 mph /  11.3 km/h 11.5 mph /  18.5 km/h 78 % 0.00 in /  0 mm
03:48 52.8 °F /  11.6 °C 45.8 °F /  7.7 °C 29.55 in /  1000.6 hPa West 5.6 mph /  9 km/h 11.5 mph /  18.5 km/h 77 % 0.00 in /  0 mm
03:53 52.8 °F /  11.6 °C 45.8 °F /  7.7 °C 29.56 in /  1000.9 hPa WNW 6.5 mph /  10.5 km/h 11.5 mph /  18.5 km/h 77 % 0.00 in /  0 mm
03:58 52.8 °F /  11.6 °C 45.8 °F /  7.7 °C 29.55 in /  1000.6 hPa West 6.9 mph /  11.1 km/h 11.5 mph /  18.5 km/h 77 % 0.00 in /  0 mm
04:03 52.8 °F /  11.6 °C 46.1 °F /  7.8 °C 29.55 in /  1000.6 hPa NW 3.7 mph /  6 km/h 8.1 mph /  13 km/h 78 % 0.00 in /  0 mm
04:08 52.9 °F /  11.6 °C 46.2 °F /  7.9 °C 29.56 in /  1000.9 hPa WNW 4.1 mph /  6.6 km/h 11.5 mph /  18.5 km/h 78 % 0.00 in /  0 mm
04:13 52.9 °F /  11.6 °C 46.2 °F /  7.9 °C 29.55 in /  1000.6 hPa WNW 6.1 mph /  9.8 km/h 10.4 mph /  16.7 km/h 78 % 0.00 in /  0 mm
04:18 52.9 °F /  11.6 °C 46.2 °F /  7.9 °C 29.56 in /  1000.9 hPa West 5.5 mph /  8.9 km/h 11.5 mph /  18.5 km/h 78 % 0.00 in /  0 mm
04:19 52.9 °F /  11.6 °C 46.2 °F /  7.9 °C 29.55 in /  1000.6 hPa WNW 4.1 mph /  6.6 km/h 11.5 mph /  18.5 km/h 78 % 0.00 in /  0 mm
04:24 52.9 °F /  11.6 °C 46.2 °F /  7.9 °C 29.55 in /  1000.6 hPa NW 6.0 mph /  9.7 km/h 13.8 mph /  22.2 km/h 78 % 0.00 in /  0 mm
04:29 52.9 °F /  11.6 °C 46.2 °F /  7.9 °C 29.56 in /  1000.9 hPa West 1.2 mph /  1.9 km/h 11.5 mph /  18.5 km/h 78 % 0.00 in /  0 mm
04:34 53.0 °F /  11.7 °C 46.3 °F /  7.9 °C 29.56 in /  1000.9 hPa West 5.1 mph /  8.2 km/h 12.7 mph /  20.4 km/h 78 % 0.00 in /  0 mm
04:39 53.0 °F /  11.7 °C 46.7 °F /  8.2 °C 29.56 in /  1000.9 hPa NNW 4.2 mph /  6.8 km/h 8.0 mph /  12.9 km/h 79 % 0.00 in /  0 mm
04:44 53.1 °F /  11.7 °C 46.8 °F /  8.2 °C 29.56 in /  1000.9 hPa WNW 4.8 mph /  7.7 km/h 8.1 mph /  13 km/h 79 % 0.00 in /  0 mm
04:49 53.1 °F /  11.7 °C 46.8 °F /  8.2 °C 29.56 in /  1000.9 hPa WNW 7.1 mph /  11.4 km/h 13.0 mph /  20.9 km/h 79 % 0.00 in /  0 mm
04:54 53.1 °F /  11.7 °C 46.8 °F /  8.2 °C 29.56 in /  1000.9 hPa West 2.6 mph /  4.2 km/h 11.5 mph /  18.5 km/h 79 % 0.00 in /  0 mm
04:59 53.1 °F /  11.7 °C 46.8 °F /  8.2 °C 29.56 in /  1000.9 hPa WSW 5.6 mph /  9 km/h 9.2 mph /  14.8 km/h 79 % 0.00 in /  0 mm
05:04 53.1 °F /  11.7 °C 46.8 °F /  8.2 °C 29.56 in /  1000.9 hPa West 6.6 mph /  10.6 km/h 11.5 mph /  18.5 km/h 79 % 0.00 in /  0 mm
05:09 53.2 °F /  11.8 °C 47.2 °F /  8.4 °C 29.57 in /  1001.2 hPa WNW 5.1 mph /  8.2 km/h 16.1 mph /  25.9 km/h 80 % 0.00 in /  0 mm
05:14 53.2 °F /  11.8 °C 47.2 °F /  8.4 °C 29.56 in /  1000.9 hPa WNW 5.1 mph /  8.2 km/h 12.7 mph /  20.4 km/h 80 % 0.00 in /  0 mm
05:19 53.3 °F /  11.8 °C 47.3 °F /  8.5 °C 29.57 in /  1001.2 hPa West 5.5 mph /  8.9 km/h 10.4 mph /  16.7 km/h 80 % 0.00 in /  0 mm
05:24 53.3 °F /  11.8 °C 47.3 °F /  8.5 °C 29.57 in /  1001.2 hPa WNW 4.3 mph /  6.9 km/h 9.0 mph /  14.5 km/h 80 % 0.00 in /  0 mm
05:29 53.4 °F /  11.9 °C 47.4 °F /  8.6 °C 29.57 in /  1001.2 hPa WNW 4.1 mph /  6.6 km/h 12.7 mph /  20.4 km/h 80 % 0.00 in /  0 mm
05:34 53.5 °F /  11.9 °C 47.5 °F /  8.6 °C 29.58 in /  1001.6 hPa WSW 5.3 mph /  8.5 km/h 9.2 mph /  14.8 km/h 80 % 0.00 in /  0 mm
05:39 53.6 °F /  12 °C 47.6 °F /  8.7 °C 29.58 in /  1001.6 hPa WNW 6.8 mph /  10.9 km/h 14.0 mph /  22.5 km/h 80 % 0.00 in /  0 mm
05:44 53.7 °F /  12.1 °C 47.7 °F /  8.7 °C 29.58 in /  1001.6 hPa WNW 7.9 mph /  12.7 km/h 12.0 mph /  19.3 km/h 80 % 0.00 in /  0 mm
05:49 53.7 °F /  12.1 °C 47.7 °F /  8.7 °C 29.59 in /  1001.9 hPa WNW 6.2 mph /  10 km/h 14.0 mph /  22.5 km/h 80 % 0.00 in /  0 mm
05:54 53.7 °F /  12.1 °C 47.7 °F /  8.7 °C 29.58 in /  1001.6 hPa WNW 5.0 mph /  8 km/h 7.0 mph /  11.3 km/h 80 % 0.00 in /  0 mm
05:59 53.8 °F /  12.1 °C 47.8 °F /  8.8 °C 29.58 in /  1001.6 hPa WNW 1.7 mph /  2.7 km/h 4.6 mph /  7.4 km/h 80 % 0.00 in /  0 mm
06:04 53.9 °F /  12.2 °C 47.5 °F /  8.6 °C 29.59 in /  1001.9 hPa West 5.3 mph /  8.5 km/h 9.0 mph /  14.5 km/h 79 % 0.00 in /  0 mm
06:09 53.9 °F /  12.2 °C 47.5 °F /  8.6 °C 29.59 in /  1001.9 hPa WNW 3.1 mph /  5 km/h 8.0 mph /  12.9 km/h 79 % 0.00 in /  0 mm
06:14 54.0 °F /  12.2 °C 48.0 °F /  8.9 °C 29.59 in /  1001.9 hPa WNW 4.5 mph /  7.2 km/h 9.2 mph /  14.8 km/h 80 % 0.00 in /  0 mm
06:19 54.0 °F /  12.2 °C 47.6 °F /  8.7 °C 29.59 in /  1001.9 hPa West 4.0 mph /  6.4 km/h 9.2 mph /  14.8 km/h 79 % 0.00 in /  0 mm
06:24 54.1 °F /  12.3 °C 47.7 °F /  8.7 °C 29.59 in /  1001.9 hPa WSW 4.1 mph /  6.6 km/h 12.0 mph /  19.3 km/h 79 % 0.00 in /  0 mm
06:29 54.2 °F /  12.3 °C 47.8 °F /  8.8 °C 29.59 in /  1001.9 hPa West 3.5 mph /  5.6 km/h 10.0 mph /  16.1 km/h 79 % 0.00 in /  0 mm
06:34 54.3 °F /  12.4 °C 47.9 °F /  8.8 °C 29.59 in /  1001.9 hPa West 5.0 mph /  8 km/h 12.7 mph /  20.4 km/h 79 % 0.00 in /  0 mm
06:39 54.4 °F /  12.4 °C 48.0 °F /  8.9 °C 29.60 in /  1002.3 hPa WSW 2.8 mph /  4.5 km/h 6.0 mph /  9.7 km/h 79 % 0.00 in /  0 mm
06:44 54.6 °F /  12.6 °C 48.2 °F /  9 °C 29.60 in /  1002.3 hPa WNW 2.7 mph /  4.3 km/h 6.0 mph /  9.7 km/h 79 % 0.00 in /  0 mm
06:49 54.8 °F /  12.7 °C 48.4 °F /  9.1 °C 29.60 in /  1002.3 hPa WNW 4.6 mph /  7.4 km/h 10.4 mph /  16.7 km/h 79 % 0.00 in /  0 mm
06:54 55.1 °F /  12.8 °C 48.7 °F /  9.3 °C 29.60 in /  1002.3 hPa West 7.1 mph /  11.4 km/h 13.8 mph /  22.2 km/h 79 % 0.00 in /  0 mm
06:59 55.4 °F /  13 °C 48.7 °F /  9.3 °C 29.60 in /  1002.3 hPa NNW 5.3 mph /  8.5 km/h 13.0 mph /  20.9 km/h 78 % 0.00 in /  0 mm
07:04 55.6 °F /  13.1 °C 48.5 °F /  9.2 °C 29.60 in /  1002.3 hPa NNW 4.4 mph /  7.1 km/h 8.1 mph /  13 km/h 77 % 0.00 in /  0 mm
07:09 55.9 °F /  13.3 °C 48.8 °F /  9.3 °C 29.60 in /  1002.3 hPa West 4.7 mph /  7.6 km/h 13.8 mph /  22.2 km/h 77 % 0.00 in /  0 mm
07:14 56.0 °F /  13.3 °C 48.9 °F /  9.4 °C 29.60 in /  1002.3 hPa WNW 4.6 mph /  7.4 km/h 10.0 mph /  16.1 km/h 77 % 0.00 in /  0 mm
07:19 56.3 °F /  13.5 °C 48.8 °F /  9.3 °C 29.61 in /  1002.6 hPa NW 2.8 mph /  4.5 km/h 6.9 mph /  11.1 km/h 76 % 0.00 in /  0 mm
07:24 56.4 °F /  13.6 °C 48.9 °F /  9.4 °C 29.61 in /  1002.6 hPa West 4.5 mph /  7.2 km/h 11.0 mph /  17.7 km/h 76 % 0.00 in /  0 mm
07:29 56.4 °F /  13.6 °C 48.9 °F /  9.4 °C 29.61 in /  1002.6 hPa WSW 2.9 mph /  4.7 km/h 6.9 mph /  11.1 km/h 76 % 0.00 in /  0 mm
07:34 56.4 °F /  13.6 °C 48.9 °F /  9.4 °C 29.61 in /  1002.6 hPa WNW 4.2 mph /  6.8 km/h 5.8 mph /  9.3 km/h 76 % 0.00 in /  0 mm
07:39 56.5 °F /  13.6 °C 49.0 °F /  9.4 °C 29.61 in /  1002.6 hPa WSW 5.2 mph /  8.4 km/h 11.5 mph /  18.5 km/h 76 % 0.00 in /  0 mm
07:44 56.5 °F /  13.6 °C 49.0 °F /  9.4 °C 29.61 in /  1002.6 hPa West 3.9 mph /  6.3 km/h 11.5 mph /  18.5 km/h 76 % 0.00 in /  0 mm
07:49 56.7 °F /  13.7 °C 49.6 °F /  9.8 °C 29.61 in /  1002.6 hPa NW 1.8 mph /  2.9 km/h 4.6 mph /  7.4 km/h 77 % 0.00 in /  0 mm
07:54 57.1 °F /  13.9 °C 50.0 °F /  10 °C 29.61 in /  1002.6 hPa WNW 4.8 mph /  7.7 km/h 6.0 mph /  9.7 km/h 77 % 0.00 in /  0 mm
08:00 57.4 °F /  14.1 °C 49.5 °F /  9.7 °C 29.62 in /  1002.9 hPa WNW 6.1 mph /  9.8 km/h 11.5 mph /  18.5 km/h 75 % 0.00 in /  0 mm
08:04 57.7 °F /  14.3 °C 49.8 °F /  9.9 °C 29.61 in /  1002.6 hPa WSW 3.2 mph /  5.1 km/h 18.4 mph /  29.6 km/h 75 % 0.00 in /  0 mm
08:09 57.8 °F /  14.3 °C 49.2 °F /  9.6 °C 29.62 in /  1002.9 hPa WNW 7.1 mph /  11.4 km/h 11.5 mph /  18.5 km/h 73 % 0.00 in /  0 mm
08:15 57.7 °F /  14.3 °C 49.5 °F /  9.7 °C 29.62 in /  1002.9 hPa West 4.5 mph /  7.2 km/h 18.4 mph /  29.6 km/h 74 % 0.00 in /  0 mm
08:20 57.9 °F /  14.4 °C 49.7 °F /  9.8 °C 29.62 in /  1002.9 hPa West 8.7 mph /  14 km/h 17.3 mph /  27.8 km/h 74 % 0.00 in /  0 mm
08:25 57.9 °F /  14.4 °C 49.3 °F /  9.6 °C 29.62 in /  1002.9 hPa WNW 8.3 mph /  13.4 km/h 18.4 mph /  29.6 km/h 73 % 0.00 in /  0 mm
08:27 57.9 °F /  14.4 °C 49.3 °F /  9.6 °C 29.62 in /  1002.9 hPa NW 9.5 mph /  15.3 km/h 15.0 mph /  24.1 km/h 73 % 0.00 in /  0 mm
08:32 57.9 °F /  14.4 °C 48.9 °F /  9.4 °C 29.62 in /  1002.9 hPa NW 6.0 mph /  9.7 km/h 11.5 mph /  18.5 km/h 72 % 0.00 in /  0 mm
08:37 57.9 °F /  14.4 °C 49.3 °F /  9.6 °C 29.62 in /  1002.9 hPa WNW 7.6 mph /  12.2 km/h 11.5 mph /  18.5 km/h 73 % 0.00 in /  0 mm
08:42 58.0 °F /  14.4 °C 49.0 °F /  9.4 °C 29.63 in /  1003.3 hPa WNW 7.0 mph /  11.3 km/h 16.1 mph /  25.9 km/h 72 % 0.00 in /  0 mm
08:47 58.1 °F /  14.5 °C 48.7 °F /  9.3 °C 29.63 in /  1003.3 hPa SW 10.0 mph /  16.1 km/h 15.0 mph /  24.1 km/h 71 % 0.00 in /  0 mm
08:52 58.2 °F /  14.6 °C 48.8 °F /  9.3 °C 29.63 in /  1003.3 hPa SW 8.2 mph /  13.2 km/h 13.8 mph /  22.2 km/h 71 % 0.00 in /  0 mm
08:57 58.2 °F /  14.6 °C 49.2 °F /  9.6 °C 29.63 in /  1003.3 hPa NW 6.8 mph /  10.9 km/h 17.3 mph /  27.8 km/h 72 % 0.00 in /  0 mm
08:58 58.2 °F /  14.6 °C 49.2 °F /  9.6 °C 29.63 in /  1003.3 hPa WNW 7.8 mph /  12.6 km/h 11.5 mph /  18.5 km/h 72 % 0.00 in /  0 mm
09:03 58.4 °F /  14.7 °C 49.0 °F /  9.4 °C 29.63 in /  1003.3 hPa NW 6.7 mph /  10.8 km/h 15.0 mph /  24.1 km/h 71 % 0.00 in /  0 mm
09:08 58.6 °F /  14.8 °C 48.8 °F /  9.3 °C 29.63 in /  1003.3 hPa WNW 4.1 mph /  6.6 km/h 9.2 mph /  14.8 km/h 70 % 0.00 in /  0 mm
09:13 58.6 °F /  14.8 °C 48.5 °F /  9.2 °C 29.63 in /  1003.3 hPa WNW 6.6 mph /  10.6 km/h 13.8 mph /  22.2 km/h 69 % 0.00 in /  0 mm
09:18 58.7 °F /  14.8 °C 48.6 °F /  9.2 °C 29.63 in /  1003.3 hPa WNW 4.2 mph /  6.8 km/h 11.5 mph /  18.5 km/h 69 % 0.00 in /  0 mm
09:23 58.8 °F /  14.9 °C 48.3 °F /  9.1 °C 29.63 in /  1003.3 hPa NNW 4.4 mph /  7.1 km/h 11.5 mph /  18.5 km/h 68 % 0.00 in /  0 mm
09:28 58.9 °F /  14.9 °C 49.1 °F /  9.5 °C 29.64 in /  1003.6 hPa WNW 2.2 mph /  3.5 km/h 12.0 mph /  19.3 km/h 70 % 0.00 in /  0 mm
09:34 59.2 °F /  15.1 °C 49.0 °F /  9.4 °C 29.63 in /  1003.3 hPa NW 4.4 mph /  7.1 km/h 8.1 mph /  13 km/h 69 % 0.00 in /  0 mm
09:39 59.4 °F /  15.2 °C 48.8 °F /  9.3 °C 29.63 in /  1003.3 hPa WNW 6.0 mph /  9.7 km/h 11.5 mph /  18.5 km/h 68 % 0.00 in /  0 mm
09:44 59.5 °F /  15.3 °C 49.3 °F /  9.6 °C 29.63 in /  1003.3 hPa NNW 3.2 mph /  5.1 km/h 9.2 mph /  14.8 km/h 69 % 0.00 in /  0 mm
09:49 59.7 °F /  15.4 °C 48.7 °F /  9.3 °C 29.63 in /  1003.3 hPa West 6.1 mph /  9.8 km/h 10.4 mph /  16.7 km/h 67 % 0.00 in /  0 mm
09:54 60.0 °F /  15.6 °C 49.4 °F /  9.7 °C 29.64 in /  1003.6 hPa WNW 6.7 mph /  10.8 km/h 11.5 mph /  18.5 km/h 68 % 0.00 in /  0 mm
09:59 60.3 °F /  15.7 °C 49.7 °F /  9.8 °C 29.63 in /  1003.3 hPa WNW 6.7 mph /  10.8 km/h 12.7 mph /  20.4 km/h 68 % 0.00 in /  0 mm
10:04 60.7 °F /  15.9 °C 48.4 °F /  9.1 °C 29.63 in /  1003.3 hPa NW 6.7 mph /  10.8 km/h 11.5 mph /  18.5 km/h 64 % 0.00 in /  0 mm
10:09 61.2 °F /  16.2 °C 48.5 °F /  9.2 °C 29.63 in /  1003.3 hPa WNW 9.9 mph /  15.9 km/h 16.1 mph /  25.9 km/h 63 % 0.00 in /  0 mm
10:14 61.5 °F /  16.4 °C 48.4 °F /  9.1 °C 29.63 in /  1003.3 hPa WNW 8.5 mph /  13.7 km/h 16.1 mph /  25.9 km/h 62 % 0.00 in /  0 mm
10:19 62.0 °F /  16.7 °C 48.8 °F /  9.3 °C 29.64 in /  1003.6 hPa West 10.9 mph /  17.5 km/h 18.4 mph /  29.6 km/h 62 % 0.00 in /  0 mm
10:24 62.2 °F /  16.8 °C 49.4 °F /  9.7 °C 29.64 in /  1003.6 hPa NE 5.2 mph /  8.4 km/h 11.5 mph /  18.5 km/h 63 % 0.00 in /  0 mm
10:29 62.3 °F /  16.8 °C 49.5 °F /  9.7 °C 29.64 in /  1003.6 hPa NW 3.1 mph /  5 km/h 11.5 mph /  18.5 km/h 63 % 0.00 in /  0 mm
10:34 62.4 °F /  16.9 °C 49.2 °F /  9.6 °C 29.64 in /  1003.6 hPa WNW 8.0 mph /  12.9 km/h 13.8 mph /  22.2 km/h 62 % 0.00 in /  0 mm
10:39 62.5 °F /  16.9 °C 49.3 °F /  9.6 °C 29.64 in /  1003.6 hPa NW 5.5 mph /  8.9 km/h 15.0 mph /  24.1 km/h 62 % 0.00 in /  0 mm
10:44 62.6 °F /  17 °C 49.0 °F /  9.4 °C 29.65 in /  1003.9 hPa WNW 7.4 mph /  11.9 km/h 16.0 mph /  25.7 km/h 61 % 0.00 in /  0 mm
10:49 62.6 °F /  17 °C 49.0 °F /  9.4 °C 29.64 in /  1003.6 hPa NW 4.7 mph /  7.6 km/h 8.1 mph /  13 km/h 61 % 0.00 in /  0 mm
10:54 62.6 °F /  17 °C 49.0 °F /  9.4 °C 29.65 in /  1003.9 hPa WNW 7.0 mph /  11.3 km/h 11.5 mph /  18.5 km/h 61 % 0.00 in /  0 mm
10:59 62.5 °F /  16.9 °C 48.9 °F /  9.4 °C 29.65 in /  1003.9 hPa NW 4.5 mph /  7.2 km/h 11.5 mph /  18.5 km/h 61 % 0.00 in /  0 mm
11:04 62.5 °F /  16.9 °C 48.9 °F /  9.4 °C 29.64 in /  1003.6 hPa WNW 3.1 mph /  5 km/h 9.0 mph /  14.5 km/h 61 % 0.00 in /  0 mm
11:09 62.4 °F /  16.9 °C 49.2 °F /  9.6 °C 29.64 in /  1003.6 hPa NNE 4.9 mph /  7.9 km/h 9.2 mph /  14.8 km/h 62 % 0.00 in /  0 mm
11:14 62.8 °F /  17.1 °C 50.0 °F /  10 °C 29.64 in /  1003.6 hPa North 7.8 mph /  12.6 km/h 12.7 mph /  20.4 km/h 63 % 0.00 in /  0 mm
11:19 63.5 °F /  17.5 °C 49.4 °F /  9.7 °C 29.64 in /  1003.6 hPa NW 5.6 mph /  9 km/h 10.0 mph /  16.1 km/h 60 % 0.00 in /  0 mm
11:24 64.5 °F /  18.1 °C 50.3 °F /  10.2 °C 29.65 in /  1003.9 hPa NNW 6.3 mph /  10.1 km/h 11.5 mph /  18.5 km/h 60 % 0.00 in /  0 mm
11:29 65.0 °F /  18.3 °C 51.2 °F /  10.7 °C 29.65 in /  1003.9 hPa WNW 4.1 mph /  6.6 km/h 8.1 mph /  13 km/h 61 % 0.00 in /  0 mm
11:30 65.0 °F /  18.3 °C 50.3 °F /  10.2 °C 29.65 in /  1003.9 hPa NNW 7.8 mph /  12.6 km/h 14.0 mph /  22.5 km/h 59 % 0.00 in /  0 mm
11:35 64.7 °F /  18.2 °C 48.6 °F /  9.2 °C 29.65 in /  1003.9 hPa NW 8.6 mph /  13.8 km/h 11.5 mph /  18.5 km/h 56 % 0.00 in /  0 mm
11:40 64.7 °F /  18.2 °C 50.5 °F /  10.3 °C 29.65 in /  1003.9 hPa NNW 5.1 mph /  8.2 km/h 12.0 mph /  19.3 km/h 60 % 0.00 in /  0 mm
11:45 65.2 °F /  18.4 °C 51.0 °F /  10.6 °C 29.65 in /  1003.9 hPa NE 5.0 mph /  8 km/h 11.5 mph /  18.5 km/h 60 % 0.00 in /  0 mm
11:50 65.8 °F /  18.8 °C 50.6 °F /  10.3 °C 29.65 in /  1003.9 hPa North 5.3 mph /  8.5 km/h 11.5 mph /  18.5 km/h 58 % 0.00 in /  0 mm
11:55 66.0 °F /  18.9 °C 50.3 °F /  10.2 °C 29.65 in /  1003.9 hPa WNW 6.0 mph /  9.7 km/h 13.8 mph /  22.2 km/h 57 % 0.00 in /  0 mm
12:00 65.8 °F /  18.8 °C 50.1 °F /  10.1 °C 29.65 in /  1003.9 hPa WNW 2.7 mph /  4.3 km/h 13.8 mph /  22.2 km/h 57 % 0.00 in /  0 mm
12:05 66.1 °F /  18.9 °C 50.9 °F /  10.5 °C 29.65 in /  1003.9 hPa WNW 4.9 mph /  7.9 km/h 8.1 mph /  13 km/h 58 % 0.00 in /  0 mm
12:10 66.3 °F /  19.1 °C 50.1 °F /  10.1 °C 29.65 in /  1003.9 hPa WNW 5.2 mph /  8.4 km/h 10.4 mph /  16.7 km/h 56 % 0.00 in /  0 mm
12:15 66.0 °F /  18.9 °C 49.4 °F /  9.7 °C 29.65 in /  1003.9 hPa WNW 5.1 mph /  8.2 km/h 9.2 mph /  14.8 km/h 55 % 0.00 in /  0 mm
12:20 66.0 °F /  18.9 °C 49.4 °F /  9.7 °C 29.65 in /  1003.9 hPa WNW 7.2 mph /  11.6 km/h 12.7 mph /  20.4 km/h 55 % 0.00 in /  0 mm
12:25 66.2 °F /  19 °C 49.1 °F /  9.5 °C 29.65 in /  1003.9 hPa West 7.5 mph /  12.1 km/h 13.8 mph /  22.2 km/h 54 % 0.00 in /  0 mm
12:30 66.4 °F /  19.1 °C 50.2 °F /  10.1 °C 29.65 in /  1003.9 hPa ENE 6.9 mph /  11.1 km/h 13.8 mph /  22.2 km/h 56 % 0.00 in /  0 mm
12:31 66.4 °F /  19.1 °C 50.2 °F /  10.1 °C 29.65 in /  1003.9 hPa SW 5.6 mph /  9 km/h 13.8 mph /  22.2 km/h 56 % 0.00 in /  0 mm
12:36 66.3 °F /  19.1 °C 49.7 °F /  9.8 °C 29.65 in /  1003.9 hPa WNW 6.0 mph /  9.7 km/h 18.0 mph /  29 km/h 55 % 0.00 in /  0 mm
12:41 66.1 °F /  18.9 °C 49.5 °F /  9.7 °C 29.65 in /  1003.9 hPa NW 8.0 mph /  12.9 km/h 14.0 mph /  22.5 km/h 55 % 0.00 in /  0 mm
12:46 65.9 °F /  18.8 °C 48.7 °F /  9.3 °C 29.65 in /  1003.9 hPa NW 9.0 mph /  14.5 km/h 16.0 mph /  25.7 km/h 54 % 0.00 in /  0 mm
12:51 65.6 °F /  18.7 °C 49.0 °F /  9.4 °C 29.65 in /  1003.9 hPa NW 9.1 mph /  14.6 km/h 12.7 mph /  20.4 km/h 55 % 0.00 in /  0 mm
12:56 65.7 °F /  18.7 °C 50.5 °F /  10.3 °C 29.65 in /  1003.9 hPa NW 7.0 mph /  11.3 km/h 14.0 mph /  22.5 km/h 58 % 0.00 in /  0 mm
13:01 66.1 °F /  18.9 °C 50.9 °F /  10.5 °C 29.65 in /  1003.9 hPa NW 5.5 mph /  8.9 km/h 10.4 mph /  16.7 km/h 58 % 0.00 in /  0 mm
13:06 66.3 °F /  19.1 °C 50.6 °F /  10.3 °C 29.66 in /  1004.3 hPa NW 7.0 mph /  11.3 km/h 14.0 mph /  22.5 km/h 57 % 0.00 in /  0 mm
13:11 66.3 °F /  19.1 °C 49.6 °F /  9.8 °C 29.65 in /  1003.9 hPa NW 7.0 mph /  11.3 km/h 14.0 mph /  22.5 km/h 55 % 0.00 in /  0 mm
13:16 66.1 °F /  18.9 °C 49.9 °F /  9.9 °C 29.66 in /  1004.3 hPa West 4.8 mph /  7.7 km/h 13.0 mph /  20.9 km/h 56 % 0.00 in /  0 mm
13:21 65.9 °F /  18.8 °C 48.7 °F /  9.3 °C 29.66 in /  1004.3 hPa WNW 9.0 mph /  14.5 km/h 16.0 mph /  25.7 km/h 54 % 0.00 in /  0 mm
13:26 65.8 °F /  18.8 °C 50.6 °F /  10.3 °C 29.66 in /  1004.3 hPa WNW 5.0 mph /  8 km/h 21.0 mph /  33.8 km/h 58 % 0.00 in /  0 mm
13:31 65.8 °F /  18.8 °C 50.6 °F /  10.3 °C 29.66 in /  1004.3 hPa WNW 5.0 mph /  8 km/h 10.0 mph /  16.1 km/h 58 % 0.00 in /  0 mm
13:36 65.8 °F /  18.8 °C 49.7 °F /  9.8 °C 29.66 in /  1004.3 hPa WNW 3.0 mph /  4.8 km/h 12.0 mph /  19.3 km/h 56 % 0.00 in /  0 mm
13:41 65.4 °F /  18.6 °C 49.3 °F /  9.6 °C 29.66 in /  1004.3 hPa NW 6.0 mph /  9.7 km/h 13.0 mph /  20.9 km/h 56 % 0.00 in /  0 mm
13:46 64.9 °F /  18.3 °C 48.8 °F /  9.3 °C 29.66 in /  1004.3 hPa NW 6.0 mph /  9.7 km/h 17.0 mph /  27.4 km/h 56 % 0.00 in /  0 mm
13:51 64.2 °F /  17.9 °C 48.6 °F /  9.2 °C 29.66 in /  1004.3 hPa WNW 7.0 mph /  11.3 km/h 15.0 mph /  24.1 km/h 57 % 0.00 in /  0 mm
13:55 63.7 °F /  17.6 °C 48.2 °F /  9 °C 29.66 in /  1004.3 hPa WNW 6.2 mph /  10 km/h 16.1 mph /  25.9 km/h 57 % 0.00 in /  0 mm
14:01 63.6 °F /  17.6 °C 48.5 °F /  9.2 °C 29.66 in /  1004.3 hPa NW 7.1 mph /  11.4 km/h 11.5 mph /  18.5 km/h 58 % 0.00 in /  0 mm
14:06 63.5 °F /  17.5 °C 49.4 °F /  9.7 °C 29.67 in /  1004.6 hPa NW 5.0 mph /  8 km/h 15.0 mph /  24.1 km/h 60 % 0.00 in /  0 mm
14:11 63.3 °F /  17.4 °C 49.2 °F /  9.6 °C 29.67 in /  1004.6 hPa NW 7.0 mph /  11.3 km/h 15.0 mph /  24.1 km/h 60 % 0.00 in /  0 mm
14:16 63.0 °F /  17.2 °C 48.9 °F /  9.4 °C 29.67 in /  1004.6 hPa NW 6.0 mph /  9.7 km/h 18.0 mph /  29 km/h 60 % 0.00 in /  0 mm
14:21 62.9 °F /  17.2 °C 48.8 °F /  9.3 °C 29.67 in /  1004.6 hPa WNW 7.0 mph /  11.3 km/h 15.0 mph /  24.1 km/h 60 % 0.00 in /  0 mm
14:26 62.7 °F /  17.1 °C 49.1 °F /  9.5 °C 29.67 in /  1004.6 hPa NW 5.0 mph /  8 km/h 14.0 mph /  22.5 km/h 61 % 0.00 in /  0 mm
14:31 62.6 °F /  17 °C 48.5 °F /  9.2 °C 29.68 in /  1005 hPa WNW 5.0 mph /  8 km/h 14.0 mph /  22.5 km/h 60 % 0.00 in /  0 mm
14:36 62.6 °F /  17 °C 49.0 °F /  9.4 °C 29.68 in /  1005 hPa NW 7.0 mph /  11.3 km/h 13.0 mph /  20.9 km/h 61 % 0.00 in /  0 mm
14:41 62.6 °F /  17 °C 49.8 °F /  9.9 °C 29.68 in /  1005 hPa NW 3.0 mph /  4.8 km/h 10.0 mph /  16.1 km/h 63 % 0.00 in /  0 mm
14:46 62.5 °F /  16.9 °C 50.2 °F /  10.1 °C 29.68 in /  1005 hPa NW 3.0 mph /  4.8 km/h 12.0 mph /  19.3 km/h 64 % 0.00 in /  0 mm
14:51 62.4 °F /  16.9 °C 49.2 °F /  9.6 °C 29.68 in /  1005 hPa NW 5.0 mph /  8 km/h 12.0 mph /  19.3 km/h 62 % 0.00 in /  0 mm
14:56 62.5 °F /  16.9 °C 49.3 °F /  9.6 °C 29.68 in /  1005 hPa NW 7.0 mph /  11.3 km/h 12.0 mph /  19.3 km/h 62 % 0.00 in /  0 mm
15:01 62.6 °F /  17 °C 49.8 °F /  9.9 °C 29.68 in /  1005 hPa WSW 8.1 mph /  13 km/h 10.4 mph /  16.7 km/h 63 % 0.00 in /  0 mm
15:06 62.8 °F /  17.1 °C 49.6 °F /  9.8 °C 29.68 in /  1005 hPa WNW 3.0 mph /  4.8 km/h 17.0 mph /  27.4 km/h 62 % 0.00 in /  0 mm
15:11 62.9 °F /  17.2 °C 48.8 °F /  9.3 °C 29.67 in /  1004.6 hPa WNW 7.0 mph /  11.3 km/h 16.0 mph /  25.7 km/h 60 % 0.00 in /  0 mm
15:16 63.1 °F /  17.3 °C 49.4 °F /  9.7 °C 29.68 in /  1005 hPa WNW 6.0 mph /  9.7 km/h 13.0 mph /  20.9 km/h 61 % 0.00 in /  0 mm
15:21 63.4 °F /  17.4 °C 50.1 °F /  10.1 °C 29.67 in /  1004.6 hPa NW 6.0 mph /  9.7 km/h 12.0 mph /  19.3 km/h 62 % 0.00 in /  0 mm
15:26 63.9 °F /  17.7 °C 50.2 °F /  10.1 °C 29.67 in /  1004.6 hPa NW 5.0 mph /  8 km/h 14.0 mph /  22.5 km/h 61 % 0.00 in /  0 mm
15:31 64.6 °F /  18.1 °C 50.9 °F /  10.5 °C 29.67 in /  1004.6 hPa NW 6.0 mph /  9.7 km/h 13.0 mph /  20.9 km/h 61 % 0.00 in /  0 mm
15:36 65.3 °F /  18.5 °C 50.1 °F /  10.1 °C 29.67 in /  1004.6 hPa NW 7.0 mph /  11.3 km/h 15.0 mph /  24.1 km/h 58 % 0.00 in /  0 mm
15:41 65.9 °F /  18.8 °C 51.2 °F /  10.7 °C 29.67 in /  1004.6 hPa NW 5.0 mph /  8 km/h 12.0 mph /  19.3 km/h 59 % 0.00 in /  0 mm
15:46 66.5 °F /  19.2 °C 51.3 °F /  10.7 °C 29.67 in /  1004.6 hPa WNW 7.0 mph /  11.3 km/h 14.0 mph /  22.5 km/h 58 % 0.00 in /  0 mm
15:51 66.8 °F /  19.3 °C 50.6 °F /  10.3 °C 29.67 in /  1004.6 hPa WNW 4.5 mph /  7.2 km/h 12.7 mph /  20.4 km/h 56 % 0.00 in /  0 mm
15:56 67.0 °F /  19.4 °C 50.3 °F /  10.2 °C 29.67 in /  1004.6 hPa WNW 7.0 mph /  11.3 km/h 14.0 mph /  22.5 km/h 55 % 0.00 in /  0 mm
16:01 67.3 °F /  19.6 °C 50.1 °F /  10.1 °C 29.68 in /  1005 hPa WNW 4.3 mph /  6.9 km/h 11.5 mph /  18.5 km/h 54 % 0.00 in /  0 mm
16:06 67.4 °F /  19.7 °C 49.7 °F /  9.8 °C 29.68 in /  1005 hPa NW 3.3 mph /  5.3 km/h 17.3 mph /  27.8 km/h 53 % 0.00 in /  0 mm
16:11 67.1 °F /  19.5 °C 49.4 °F /  9.7 °C 29.68 in /  1005 hPa WSW 4.9 mph /  7.9 km/h 11.5 mph /  18.5 km/h 53 % 0.00 in /  0 mm
16:16 67.1 °F /  19.5 °C 50.9 °F /  10.5 °C 29.68 in /  1005 hPa WNW 3.2 mph /  5.1 km/h 10.4 mph /  16.7 km/h 56 % 0.00 in /  0 mm
16:17 67.2 °F /  19.6 °C 51.0 °F /  10.6 °C 29.68 in /  1005 hPa NNW 4.0 mph /  6.4 km/h 7.0 mph /  11.3 km/h 56 % 0.00 in /  0 mm
16:22 67.3 °F /  19.6 °C 50.1 °F /  10.1 °C 29.68 in /  1005 hPa NNW 4.0 mph /  6.4 km/h 10.4 mph /  16.7 km/h 54 % 0.00 in /  0 mm
16:27 67.3 °F /  19.6 °C 49.6 °F /  9.8 °C 29.68 in /  1005 hPa WNW 6.5 mph /  10.5 km/h 11.5 mph /  18.5 km/h 53 % 0.00 in /  0 mm
16:32 67.4 °F /  19.7 °C 50.7 °F /  10.4 °C 29.69 in /  1005.3 hPa WNW 5.6 mph /  9 km/h 12.0 mph /  19.3 km/h 55 % 0.00 in /  0 mm
16:37 67.5 °F /  19.7 °C 49.3 °F /  9.6 °C 29.69 in /  1005.3 hPa WNW 4.9 mph /  7.9 km/h 11.5 mph /  18.5 km/h 52 % 0.00 in /  0 mm
16:42 67.6 °F /  19.8 °C 49.9 °F /  9.9 °C 29.69 in /  1005.3 hPa West 6.9 mph /  11.1 km/h 13.8 mph /  22.2 km/h 53 % 0.00 in /  0 mm
16:47 67.6 °F /  19.8 °C 49.3 °F /  9.6 °C 29.69 in /  1005.3 hPa NW 6.4 mph /  10.3 km/h 13.8 mph /  22.2 km/h 52 % 0.00 in /  0 mm
16:52 67.4 °F /  19.7 °C 50.2 °F /  10.1 °C 29.69 in /  1005.3 hPa WNW 1.7 mph /  2.7 km/h 7.0 mph /  11.3 km/h 54 % 0.00 in /  0 mm
16:57 67.3 °F /  19.6 °C 49.6 °F /  9.8 °C 29.69 in /  1005.3 hPa WNW 5.5 mph /  8.9 km/h 11.5 mph /  18.5 km/h 53 % 0.00 in /  0 mm
17:02 67.2 °F /  19.6 °C 49.5 °F /  9.7 °C 29.69 in /  1005.3 hPa WNW 5.3 mph /  8.5 km/h 8.1 mph /  13 km/h 53 % 0.00 in /  0 mm
17:07 67.0 °F /  19.4 °C 49.3 °F /  9.6 °C 29.70 in /  1005.6 hPa WNW 5.5 mph /  8.9 km/h 8.1 mph /  13 km/h 53 % 0.00 in /  0 mm
17:12 66.7 °F /  19.3 °C 49.5 °F /  9.7 °C 29.70 in /  1005.6 hPa NW 3.6 mph /  5.8 km/h 6.9 mph /  11.1 km/h 54 % 0.00 in /  0 mm
17:17 66.5 °F /  19.2 °C 49.8 °F /  9.9 °C 29.70 in /  1005.6 hPa WSW 2.9 mph /  4.7 km/h 6.9 mph /  11.1 km/h 55 % 0.00 in /  0 mm
17:22 66.3 °F /  19.1 °C 48.7 °F /  9.3 °C 29.71 in /  1006 hPa NW 6.5 mph /  10.5 km/h 11.5 mph /  18.5 km/h 53 % 0.00 in /  0 mm
17:27 66.1 °F /  18.9 °C 49.5 °F /  9.7 °C 29.70 in /  1005.6 hPa NW 5.0 mph /  8 km/h 10.4 mph /  16.7 km/h 55 % 0.00 in /  0 mm
17:32 66.0 °F /  18.9 °C 48.9 °F /  9.4 °C 29.71 in /  1006 hPa NNW 3.8 mph /  6.1 km/h 9.2 mph /  14.8 km/h 54 % 0.00 in /  0 mm
17:37 65.9 °F /  18.8 °C 48.8 °F /  9.3 °C 29.71 in /  1006 hPa NE 5.3 mph /  8.5 km/h 10.0 mph /  16.1 km/h 54 % 0.00 in /  0 mm
17:42 65.8 °F /  18.8 °C 49.2 °F /  9.6 °C 29.71 in /  1006 hPa NNW 5.5 mph /  8.9 km/h 10.4 mph /  16.7 km/h 55 % 0.00 in /  0 mm
17:47 65.7 °F /  18.7 °C 48.6 °F /  9.2 °C 29.71 in /  1006 hPa WNW 5.3 mph /  8.5 km/h 12.7 mph /  20.4 km/h 54 % 0.00 in /  0 mm
17:52 65.6 °F /  18.7 °C 48.5 °F /  9.2 °C 29.72 in /  1006.3 hPa NE 2.8 mph /  4.5 km/h 11.5 mph /  18.5 km/h 54 % 0.00 in /  0 mm
17:57 65.4 °F /  18.6 °C 47.8 °F /  8.8 °C 29.72 in /  1006.3 hPa NNW 5.0 mph /  8 km/h 8.1 mph /  13 km/h 53 % 0.00 in /  0 mm
18:03 65.3 °F /  18.5 °C 48.2 °F /  9 °C 29.72 in /  1006.3 hPa WNW 5.8 mph /  9.3 km/h 13.0 mph /  20.9 km/h 54 % 0.00 in /  0 mm
18:08 65.2 °F /  18.4 °C 47.6 °F /  8.7 °C 29.72 in /  1006.3 hPa NNW 6.4 mph /  10.3 km/h 17.3 mph /  27.8 km/h 53 % 0.00 in /  0 mm
18:13 65.0 °F /  18.3 °C 48.4 °F /  9.1 °C 29.73 in /  1006.7 hPa North 2.5 mph /  4 km/h 9.0 mph /  14.5 km/h 55 % 0.00 in /  0 mm
18:18 64.9 °F /  18.3 °C 47.4 °F /  8.6 °C 29.73 in /  1006.7 hPa NNW 3.9 mph /  6.3 km/h 10.4 mph /  16.7 km/h 53 % 0.00 in /  0 mm
18:23 65.0 °F /  18.3 °C 47.9 °F /  8.8 °C 29.73 in /  1006.7 hPa North 6.3 mph /  10.1 km/h 11.5 mph /  18.5 km/h 54 % 0.00 in /  0 mm
18:28 65.0 °F /  18.3 °C 47.9 °F /  8.8 °C 29.73 in /  1006.7 hPa NW 2.7 mph /  4.3 km/h 11.5 mph /  18.5 km/h 54 % 0.00 in /  0 mm
18:33 65.0 °F /  18.3 °C 47.9 °F /  8.8 °C 29.73 in /  1006.7 hPa WNW 2.9 mph /  4.7 km/h 10.4 mph /  16.7 km/h 54 % 0.00 in /  0 mm
18:38 64.9 °F /  18.3 °C 47.9 °F /  8.8 °C 29.74 in /  1007 hPa ENE 3.4 mph /  5.5 km/h 10.4 mph /  16.7 km/h 54 % 0.00 in /  0 mm
18:43 64.7 °F /  18.2 °C 47.7 °F /  8.7 °C 29.74 in /  1007 hPa NW 3.7 mph /  6 km/h 6.9 mph /  11.1 km/h 54 % 0.00 in /  0 mm
18:48 64.6 °F /  18.1 °C 48.1 °F /  8.9 °C 29.74 in /  1007 hPa WNW 4.4 mph /  7.1 km/h 10.4 mph /  16.7 km/h 55 % 0.00 in /  0 mm
18:53 64.6 °F /  18.1 °C 48.5 °F /  9.2 °C 29.75 in /  1007.3 hPa NW 4.0 mph /  6.4 km/h 11.5 mph /  18.5 km/h 56 % 0.00 in /  0 mm
18:58 64.4 °F /  18 °C 47.9 °F /  8.8 °C 29.75 in /  1007.3 hPa NNE 2.3 mph /  3.7 km/h 8.1 mph /  13 km/h 55 % 0.00 in /  0 mm
19:03 64.3 °F /  17.9 °C 47.3 °F /  8.5 °C 29.75 in /  1007.3 hPa North 3.4 mph /  5.5 km/h 10.4 mph /  16.7 km/h 54 % 0.00 in /  0 mm
19:08 64.2 °F /  17.9 °C 47.7 °F /  8.7 °C 29.75 in /  1007.3 hPa NNW 4.2 mph /  6.8 km/h 12.7 mph /  20.4 km/h 55 % 0.00 in /  0 mm
19:13 64.1 °F /  17.8 °C 48.1 °F /  8.9 °C 29.75 in /  1007.3 hPa West 3.3 mph /  5.3 km/h 5.8 mph /  9.3 km/h 56 % 0.00 in /  0 mm
19:18 63.9 °F /  17.7 °C 47.9 °F /  8.8 °C 29.76 in /  1007.7 hPa North 4.0 mph /  6.4 km/h 9.0 mph /  14.5 km/h 56 % 0.00 in /  0 mm
19:23 63.7 °F /  17.6 °C 47.7 °F /  8.7 °C 29.75 in /  1007.3 hPa NNE 3.8 mph /  6.1 km/h 8.1 mph /  13 km/h 56 % 0.00 in /  0 mm
19:28 63.6 °F /  17.6 °C 47.6 °F /  8.7 °C 29.76 in /  1007.7 hPa NW 2.2 mph /  3.5 km/h 4.0 mph /  6.4 km/h 56 % 0.00 in /  0 mm
19:33 63.5 °F /  17.5 °C 48.0 °F /  8.9 °C 29.76 in /  1007.7 hPa WNW 1.7 mph /  2.7 km/h 4.6 mph /  7.4 km/h 57 % 0.00 in /  0 mm
19:38 63.4 °F /  17.4 °C 47.9 °F /  8.8 °C 29.77 in /  1008 hPa North 1.8 mph /  2.9 km/h 4.6 mph /  7.4 km/h 57 % 0.00 in /  0 mm
19:43 63.1 °F /  17.3 °C 48.1 °F /  8.9 °C 29.77 in /  1008 hPa WNW 3.3 mph /  5.3 km/h 5.0 mph /  8 km/h 58 % 0.00 in /  0 mm
19:48 62.9 °F /  17.2 °C 48.3 °F /  9.1 °C 29.77 in /  1008 hPa WNW 3.7 mph /  6 km/h 10.0 mph /  16.1 km/h 59 % 0.00 in /  0 mm
19:53 62.7 °F /  17.1 °C 48.2 °F /  9 °C 29.77 in /  1008 hPa NW 4.8 mph /  7.7 km/h 11.5 mph /  18.5 km/h 59 % 0.00 in /  0 mm
19:58 62.5 °F /  16.9 °C 48.4 °F /  9.1 °C 29.77 in /  1008 hPa NW 4.6 mph /  7.4 km/h 11.5 mph /  18.5 km/h 60 % 0.00 in /  0 mm
20:03 62.4 °F /  16.9 °C 48.3 °F /  9.1 °C 29.78 in /  1008.4 hPa NW 7.3 mph /  11.7 km/h 10.4 mph /  16.7 km/h 60 % 0.00 in /  0 mm
20:09 62.3 °F /  16.8 °C 47.8 °F /  8.8 °C 29.79 in /  1008.7 hPa NNW 5.1 mph /  8.2 km/h 10.4 mph /  16.7 km/h 59 % 0.00 in /  0 mm
20:14 62.2 °F /  16.8 °C 48.1 °F /  8.9 °C 29.79 in /  1008.7 hPa NW 6.4 mph /  10.3 km/h 12.7 mph /  20.4 km/h 60 % 0.00 in /  0 mm
20:19 62.2 °F /  16.8 °C 48.1 °F /  8.9 °C 29.79 in /  1008.7 hPa NW 3.7 mph /  6 km/h 8.1 mph /  13 km/h 60 % 0.00 in /  0 mm
20:24 62.1 °F /  16.7 °C 48.0 °F /  8.9 °C 29.79 in /  1008.7 hPa WNW 4.2 mph /  6.8 km/h 9.2 mph /  14.8 km/h 60 % 0.00 in /  0 mm
20:29 62.0 °F /  16.7 °C 48.0 °F /  8.9 °C 29.80 in /  1009 hPa WNW 4.8 mph /  7.7 km/h 10.4 mph /  16.7 km/h 60 % 0.00 in /  0 mm
20:34 61.9 °F /  16.6 °C 47.9 °F /  8.8 °C 29.80 in /  1009 hPa WNW 2.7 mph /  4.3 km/h 9.0 mph /  14.5 km/h 60 % 0.00 in /  0 mm
20:39 61.8 °F /  16.6 °C 47.8 °F /  8.8 °C 29.80 in /  1009 hPa WSW 5.8 mph /  9.3 km/h 10.4 mph /  16.7 km/h 60 % 0.00 in /  0 mm
20:44 61.7 °F /  16.5 °C 47.7 °F /  8.7 °C 29.80 in /  1009 hPa West 6.2 mph /  10 km/h 12.0 mph /  19.3 km/h 60 % 0.00 in /  0 mm
20:49 61.6 °F /  16.4 °C 47.6 °F /  8.7 °C 29.81 in /  1009.4 hPa NW 4.7 mph /  7.6 km/h 6.9 mph /  11.1 km/h 60 % 0.00 in /  0 mm
20:54 61.6 °F /  16.4 °C 47.6 °F /  8.7 °C 29.81 in /  1009.4 hPa West 6.3 mph /  10.1 km/h 11.5 mph /  18.5 km/h 60 % 0.00 in /  0 mm
20:59 61.5 °F /  16.4 °C 47.5 °F /  8.6 °C 29.82 in /  1009.7 hPa WNW 4.5 mph /  7.2 km/h 10.4 mph /  16.7 km/h 60 % 0.00 in /  0 mm
21:04 61.4 °F /  16.3 °C 47.4 °F /  8.6 °C 29.82 in /  1009.7 hPa NW 3.3 mph /  5.3 km/h 7.0 mph /  11.3 km/h 60 % 0.00 in /  0 mm
21:09 61.4 °F /  16.3 °C 47.4 °F /  8.6 °C 29.83 in /  1010 hPa NW 5.2 mph /  8.4 km/h 10.4 mph /  16.7 km/h 60 % 0.00 in /  0 mm
21:14 61.3 °F /  16.3 °C 47.3 °F /  8.5 °C 29.83 in /  1010 hPa WNW 3.8 mph /  6.1 km/h 5.8 mph /  9.3 km/h 60 % 0.00 in /  0 mm
21:19 61.3 °F /  16.3 °C 47.3 °F /  8.5 °C 29.83 in /  1010 hPa West 5.5 mph /  8.9 km/h 12.7 mph /  20.4 km/h 60 % 0.00 in /  0 mm
21:24 61.3 °F /  16.3 °C 47.3 °F /  8.5 °C 29.83 in /  1010 hPa WNW 5.0 mph /  8 km/h 9.2 mph /  14.8 km/h 60 % 0.00 in /  0 mm
21:29 61.2 °F /  16.2 °C 47.2 °F /  8.4 °C 29.83 in /  1010 hPa WNW 6.7 mph /  10.8 km/h 11.5 mph /  18.5 km/h 60 % 0.00 in /  0 mm
21:34 61.2 °F /  16.2 °C 47.6 °F /  8.7 °C 29.83 in /  1010 hPa NW 2.7 mph /  4.3 km/h 6.9 mph /  11.1 km/h 61 % 0.00 in /  0 mm
21:39 61.1 °F /  16.2 °C 47.5 °F /  8.6 °C 29.83 in /  1010 hPa WNW 3.1 mph /  5 km/h 6.9 mph /  11.1 km/h 61 % 0.00 in /  0 mm
21:44 61.0 °F /  16.1 °C 47.4 °F /  8.6 °C 29.83 in /  1010 hPa West 5.4 mph /  8.7 km/h 7.0 mph /  11.3 km/h 61 % 0.00 in /  0 mm
21:49 60.9 °F /  16.1 °C 47.4 °F /  8.6 °C 29.83 in /  1010 hPa WNW 3.7 mph /  6 km/h 10.4 mph /  16.7 km/h 61 % 0.00 in /  0 mm
21:54 60.8 °F /  16 °C 47.3 °F /  8.5 °C 29.83 in /  1010 hPa West 2.9 mph /  4.7 km/h 6.9 mph /  11.1 km/h 61 % 0.00 in /  0 mm
21:59 60.7 °F /  15.9 °C 47.2 °F /  8.4 °C 29.83 in /  1010 hPa West 2.0 mph /  3.2 km/h 5.8 mph /  9.3 km/h 61 % 0.00 in /  0 mm
22:05 60.6 °F /  15.9 °C 47.1 °F /  8.4 °C 29.83 in /  1010 hPa NW 4.9 mph /  7.9 km/h 5.8 mph /  9.3 km/h 61 % 0.00 in /  0 mm
22:10 60.5 °F /  15.8 °C 47.0 °F /  8.3 °C 29.83 in /  1010 hPa West 3.0 mph /  4.8 km/h 5.8 mph /  9.3 km/h 61 % 0.00 in /  0 mm
22:15 60.4 °F /  15.8 °C 47.3 °F /  8.5 °C 29.83 in /  1010 hPa West 2.2 mph /  3.5 km/h 5.8 mph /  9.3 km/h 62 % 0.00 in /  0 mm
22:20 60.3 °F /  15.7 °C 47.2 °F /  8.4 °C 29.83 in /  1010 hPa West 4.6 mph /  7.4 km/h 6.0 mph /  9.7 km/h 62 % 0.00 in /  0 mm
22:25 60.2 °F /  15.7 °C 47.6 °F /  8.7 °C 29.83 in /  1010 hPa WNW 1.9 mph /  3.1 km/h 5.0 mph /  8 km/h 63 % 0.00 in /  0 mm
22:30 60.1 °F /  15.6 °C 47.5 °F /  8.6 °C 29.83 in /  1010 hPa SW 3.2 mph /  5.1 km/h 4.6 mph /  7.4 km/h 63 % 0.00 in /  0 mm
22:35 60.0 °F /  15.6 °C 47.8 °F /  8.8 °C 29.83 in /  1010 hPa NW 2.9 mph /  4.7 km/h 5.8 mph /  9.3 km/h 64 % 0.00 in /  0 mm
22:40 59.9 °F /  15.5 °C 47.7 °F /  8.7 °C 29.84 in /  1010.4 hPa WSW 4.3 mph /  6.9 km/h 8.1 mph /  13 km/h 64 % 0.00 in /  0 mm
22:45 59.8 °F /  15.4 °C 47.2 °F /  8.4 °C 29.84 in /  1010.4 hPa West 1.3 mph /  2.1 km/h 4.6 mph /  7.4 km/h 63 % 0.00 in /  0 mm
22:50 59.7 °F /  15.4 °C 47.1 °F /  8.4 °C 29.84 in /  1010.4 hPa WSW 2.3 mph /  3.7 km/h 5.8 mph /  9.3 km/h 63 % 0.00 in /  0 mm
22:55 59.6 °F /  15.3 °C 47.4 °F /  8.6 °C 29.83 in /  1010 hPa WSW 3.0 mph /  4.8 km/h 5.8 mph /  9.3 km/h 64 % 0.00 in /  0 mm
23:00 59.6 °F /  15.3 °C 47.4 °F /  8.6 °C 29.83 in /  1010 hPa West 2.6 mph /  4.2 km/h 5.8 mph /  9.3 km/h 64 % 0.00 in /  0 mm
23:05 59.6 °F /  15.3 °C 47.0 °F /  8.3 °C 29.84 in /  1010.4 hPa WSW 1.8 mph /  2.9 km/h 5.8 mph /  9.3 km/h 63 % 0.00 in /  0 mm
23:10 59.5 °F /  15.3 °C 47.3 °F /  8.5 °C 29.84 in /  1010.4 hPa SW 1.5 mph /  2.4 km/h 8.1 mph /  13 km/h 64 % 0.00 in /  0 mm
23:15 59.4 °F /  15.2 °C 47.2 °F /  8.4 °C 29.84 in /  1010.4 hPa WSW 3.9 mph /  6.3 km/h 8.1 mph /  13 km/h 64 % 0.00 in /  0 mm
23:20 59.4 °F /  15.2 °C 47.2 °F /  8.4 °C 29.84 in /  1010.4 hPa WNW 2.9 mph /  4.7 km/h 3.5 mph /  5.6 km/h 64 % 0.00 in /  0 mm
23:25 59.3 °F /  15.2 °C 47.1 °F /  8.4 °C 29.85 in /  1010.7 hPa West 6.7 mph /  10.8 km/h 9.2 mph /  14.8 km/h 64 % 0.00 in /  0 mm
23:30 59.3 °F /  15.2 °C 47.1 °F /  8.4 °C 29.84 in /  1010.4 hPa SSW 3.4 mph /  5.5 km/h 10.4 mph /  16.7 km/h 64 % 0.00 in /  0 mm
23:35 59.2 °F /  15.1 °C 47.0 °F /  8.3 °C 29.85 in /  1010.7 hPa SW 4.8 mph /  7.7 km/h 5.8 mph /  9.3 km/h 64 % 0.00 in /  0 mm
23:40 59.2 °F /  15.1 °C 47.0 °F /  8.3 °C 29.86 in /  1011.1 hPa WNW 2.9 mph /  4.7 km/h 8.1 mph /  13 km/h 64 % 0.00 in /  0 mm
23:45 59.1 °F /  15.1 °C 46.9 °F /  8.3 °C 29.86 in /  1011.1 hPa WNW 2.5 mph /  4 km/h 6.9 mph /  11.1 km/h 64 % 0.00 in /  0 mm
23:50 59.1 °F /  15.1 °C 47.3 °F /  8.5 °C 29.86 in /  1011.1 hPa WNW 2.2 mph /  3.5 km/h 3.5 mph /  5.6 km/h 65 % 0.00 in /  0 mm
23:55 59.1 °F /  15.1 °C 46.9 °F /  8.3 °C 29.86 in /  1011.1 hPa West 4.2 mph /  6.8 km/h 4.6 mph /  7.4 km/h 64 % 0.00 in /  0 mm
Crab Meadow Weather
Compliments of Weather Underground - 3 mb

Script developed by  Jim McMurry - jmcmurry@mwt.net Adapted for the template by  Wim van der Kuil - Leuven-Template.eu

Extremes: By average annual rainfall, the wettest place in the world is Mawslynram, in Meghalaya State, India with 467 1/2 inches per annum.